Time;durP1;ratioP1;P1;durP2;ratioP2;P2;SDS_P1;SDS_P2;PMS_P1;PMS_P2;Temp;Humidity;BMP_temperature;BMP_pressure;BME280_temperature;BME280_humidity;BME280_pressure;Samples;Min_cycle;Max_cycle;Signal;HPM_P1;HPM_P2
2023/08/02 00:01:11;;;;;;;;;;;;;;;19.70;55.01;100073.00;4846735;28;120183;-79
2023/08/02 00:03:38;;;;;;;;;;;;;;;19.70;55.16;100065.75;4852314;28;120263;-78
2023/08/02 00:06:05;;;;;;;;;;;;;;;19.73;55.22;100056.63;4850513;28;124304;-80
2023/08/02 00:08:32;;;;;;;;;;;;;;;19.73;55.19;100051.25;4843780;28;125170;-80
2023/08/02 00:10:59;;;;;;;;;;;;;;;19.73;55.16;100044.03;4849390;28;120152;-79
2023/08/02 00:13:26;;;;;;;;;;;;;;;19.72;55.15;100038.75;4866602;28;118728;-79
2023/08/02 00:15:53;;;;;;;;;;;;;;;19.73;55.21;100027.06;4851914;28;124805;-79
2023/08/02 00:18:20;;;;;;;;;;;;;;;19.73;55.08;100029.75;4850927;28;122356;-79
2023/08/02 00:20:48;;;;;;;;;;;;;;;19.72;55.15;100033.38;4850241;28;119151;-80
2023/08/02 00:23:15;;;;;;;;;;;;;;;19.71;55.06;100037.91;4851189;28;118912;-78
2023/08/02 00:25:42;;;;;;;;;;;;;;;19.70;55.06;100030.00;4850805;28;124310;-79
2023/08/02 00:28:09;;;;;;;;;;;;;;;19.68;55.00;100032.00;4849712;28;124084;-79
2023/08/02 00:30:46;;;;;;;;;;;;;;;19.64;55.18;100043.03;4847957;28;119809;-79
2023/08/02 00:33:14;;;;;;;;;;;;;;;19.62;55.17;100046.88;4833122;29;120908;-79
2023/08/02 00:35:45;;;;;;;;;;;;;;;19.57;55.07;100052.69;4834502;28;125462;-79
2023/08/02 00:38:13;;;;;;;;;;;;;;;19.54;55.20;100047.59;4849809;29;123877;-81
2023/08/02 00:40:40;;;;;;;;;;;;;;;19.51;55.08;100042.50;4851219;28;119524;-81
2023/08/02 00:43:07;;;;;;;;;;;;;;;19.48;55.16;100037.44;4850776;28;118313;-79
2023/08/02 00:45:35;;;;;;;;;;;;;;;19.46;55.31;100042.13;4849696;28;124504;-81
2023/08/02 00:48:03;;;;;;;;;;;;;;;19.44;55.23;100046.81;4849732;28;123578;-79
2023/08/02 00:50:31;;;;;;;;;;;;;;;19.43;55.19;100039.72;4848441;28;120474;-79
2023/08/02 00:52:59;;;;;;;;;;;;;;;19.40;55.23;100029.25;4850430;28;119395;-79
2023/08/02 00:55:26;;;;;;;;;;;;;;;19.36;55.31;100017.97;4849253;28;124928;-79
2023/08/02 00:57:53;;;;;;;;;;;;;;;19.35;55.44;100026.19;4841970;28;124281;-79
2023/08/02 01:00:20;;;;;;;;;;;;;;;19.33;55.24;100017.44;4847942;28;119677;-79
2023/08/02 01:02:47;;;;;;;;;;;;;;;19.30;55.32;100012.34;4834980;29;120205;-79
2023/08/02 01:05:15;;;;;;;;;;;;;;;19.25;55.28;100010.94;4850568;28;123907;-80
2023/08/02 01:08:02;;;;;;;;;;;;;;;19.23;55.27;100012.94;4835355;29;124851;-81
2023/08/02 01:10:29;;;;;;;;;;;;;;;19.21;55.33;100009.56;4833891;29;120265;-79
2023/08/02 01:12:57;;;;;;;;;;;;;;;19.18;55.29;100004.47;4851837;28;119056;-79
2023/08/02 01:15:24;;;;;;;;;;;;;;;19.15;55.32;100010.13;4848563;28;124939;-79
2023/08/02 01:17:52;;;;;;;;;;;;;;;19.12;55.51;100002.38;4845039;28;123772;-80
2023/08/02 01:20:19;;;;;;;;;;;;;;;19.11;55.36;100008.72;4850003;28;119452;-79
2023/08/02 01:22:46;;;;;;;;;;;;;;;19.10;55.57;100007.03;4833588;29;119814;-79
2023/08/02 01:25:14;;;;;;;;;;;;;;;19.09;55.69;100005.34;4845449;28;124877;-79
2023/08/02 01:27:43;;;;;;;;;;;;;;;19.10;55.66;100012.41;4847918;28;122664;-80
2023/08/02 01:30:12;;;;;;;;;;;;;;;19.13;55.69;100001.38;4860359;28;121273;-80
2023/08/02 01:32:39;;;;;;;;;;;;;;;19.15;55.69;100003.91;4848406;28;120436;-79
2023/08/02 01:35:07;;;;;;;;;;;;;;;19.16;55.66;100000.25;4834747;29;123773;-79
2023/08/02 01:37:35;;;;;;;;;;;;;;;19.18;55.78;100001.78;4849878;28;123130;-78
2023/08/02 01:40:03;;;;;;;;;;;;;;;19.19;55.71;99990.06;4832971;29;120667;-79
2023/08/02 01:42:30;;;;;;;;;;;;;;;19.20;55.76;100002.47;4834510;29;119870;-79
2023/08/02 01:44:57;;;;;;;;;;;;;;;19.21;55.83;100009.56;4850662;28;126182;-82
2023/08/02 01:47:24;;;;;;;;;;;;;;;19.22;55.71;100000.50;4848209;28;125166;-79
2023/08/02 01:49:51;;;;;;;;;;;;;;;19.24;55.83;99990.44;4860639;28;120530;-80
2023/08/02 01:52:18;;;;;;;;;;;;;;;19.24;55.79;99979.72;4848587;28;119726;-80
2023/08/02 01:54:45;;;;;;;;;;;;;;;19.30;55.75;99985.50;4848285;28;125391;-79
2023/08/02 01:57:12;;;;;;;;;;;;;;;19.31;55.81;99976.44;4848378;28;124637;-81
2023/08/02 01:59:39;;;;;;;;;;;;;;;19.33;55.89;99969.09;4826631;29;120571;-79
2023/08/02 02:02:06;;;;;;;;;;;;;;;19.36;55.87;99963.41;4855219;28;117785;-79
2023/08/02 02:04:33;;;;;;;;;;;;;;;19.38;55.80;99961.44;4850438;28;124421;-79
2023/08/02 02:07:00;;;;;;;;;;;;;;;19.40;55.90;99948.69;4850787;28;125699;-78
2023/08/02 02:09:27;;;;;;;;;;;;;;;19.43;55.82;99953.78;4863321;28;119668;-80
2023/08/02 02:11:54;;;;;;;;;;;;;;;19.46;55.78;99956.19;4853782;28;118771;-79
2023/08/02 02:14:21;;;;;;;;;;;;;;;19.48;55.78;99935.41;4854222;28;124344;-79
2023/08/02 02:16:48;;;;;;;;;;;;;;;19.49;55.78;99937.06;4834078;28;125288;-80
2023/08/02 02:19:15;;;;;;;;;;;;;;;19.50;55.97;99928.03;4854124;28;119888;-79
2023/08/02 02:21:42;;;;;;;;;;;;;;;19.50;55.86;99922.66;4851964;28;122828;-79
2023/08/02 02:24:09;;;;;;;;;;;;;;;19.52;55.92;99909.91;4851171;28;123747;-78
2023/08/02 02:26:36;;;;;;;;;;;;;;;19.51;55.97;99897.47;4853698;29;124559;-79
2023/08/02 02:29:03;;;;;;;;;;;;;;;19.54;55.92;99902.56;4847942;28;120390;-79
2023/08/02 02:31:30;;;;;;;;;;;;;;;19.55;56.04;99898.88;4852714;28;122407;-79
2023/08/02 02:33:57;;;;;;;;;;;;;;;19.56;55.91;99889.81;4836693;28;123061;-79
2023/08/02 02:36:24;;;;;;;;;;;;;;;19.56;55.91;99887.13;4852155;28;123491;-79
2023/08/02 02:38:52;;;;;;;;;;;;;;;19.57;55.88;99880.78;4850764;28;120103;-81
2023/08/02 02:41:19;;;;;;;;;;;;;;;19.59;56.13;99865.34;4852073;28;118986;-79
2023/08/02 02:43:45;;;;;;;;;;;;;;;19.61;56.02;99859.84;4848914;28;124363;-81
2023/08/02 02:46:12;;;;;;;;;;;;;;;19.62;56.01;99870.41;4851065;28;125471;-79
2023/08/02 02:48:39;;;;;;;;;;;;;;;19.63;55.93;99869.41;4847632;28;120012;-79
2023/08/02 02:51:06;;;;;;;;;;;;;;;19.64;55.80;99865.72;4854459;28;119942;-80
2023/08/02 02:53:33;;;;;;;;;;;;;;;19.64;56.01;99863.03;4851266;28;124976;-79
2023/08/02 02:56:00;;;;;;;;;;;;;;;19.63;56.01;99847.94;4852151;28;123870;-78
2023/08/02 02:58:27;;;;;;;;;;;;;;;19.61;55.89;99860.66;4850251;28;120546;-79
2023/08/02 03:00:56;;;;;;;;;;;;;;;19.60;56.04;99853.59;4860349;28;118190;-79
2023/08/02 03:03:23;;;;;;;;;;;;;;;19.59;56.01;99851.94;4851706;28;124571;-79
2023/08/02 03:05:52;;;;;;;;;;;;;;;19.58;55.94;99850.22;4847729;28;124874;-79
2023/08/02 03:08:19;;;;;;;;;;;;;;;19.58;55.96;99852.91;4835075;28;120560;-81
2023/08/02 03:10:46;;;;;;;;;;;;;;;19.57;56.19;99843.19;4853260;28;119315;-79
2023/08/02 03:13:13;;;;;;;;;;;;;;;19.57;55.98;99842.31;4851009;28;124300;-80
2023/08/02 03:15:40;;;;;;;;;;;;;;;19.57;56.10;99832.44;4850218;28;124097;-80
2023/08/02 03:18:07;;;;;;;;;;;;;;;19.59;56.23;99835.81;4852635;28;120458;-79
2023/08/02 03:20:37;;;;;;;;;;;;;;;19.59;56.25;99819.69;4848755;28;120484;-79
2023/08/02 03:23:04;;;;;;;;;;;;;;;19.62;56.22;99808.63;4849249;28;124826;-81
2023/08/02 03:25:31;;;;;;;;;;;;;;;19.63;56.21;99794.22;4853091;28;124522;-79
2023/08/02 03:27:58;;;;;;;;;;;;;;;19.64;56.13;99795.03;4853237;28;118436;-79
2023/08/02 03:30:25;;;;;;;;;;;;;;;19.64;56.33;99790.50;4847375;28;119672;-79
2023/08/02 03:32:52;;;;;;;;;;;;;;;19.64;56.14;99787.81;4851034;28;125267;-80
2023/08/02 03:35:19;;;;;;;;;;;;;;;19.65;56.29;99781.47;4835523;28;124943;-81
2023/08/02 03:37:46;;;;;;;;;;;;;;;19.64;56.30;99771.69;4851985;28;119884;-79
2023/08/02 03:40:13;;;;;;;;;;;;;;;19.63;56.34;99772.72;4852413;28;118229;-79
2023/08/02 03:42:40;;;;;;;;;;;;;;;19.62;56.41;99765.63;4851867;28;124909;-78
2023/08/02 03:45:07;;;;;;;;;;;;;;;19.62;56.31;99771.00;4851401;28;123684;-80
2023/08/02 03:47:34;;;;;;;;;;;;;;;19.61;56.34;99763.97;4850863;28;119637;-79
2023/08/02 03:50:01;;;;;;;;;;;;;;;19.62;56.31;99760.28;4848888;28;119491;-79
2023/08/02 03:52:28;;;;;;;;;;;;;;;19.63;56.31;99756.59;4848380;28;124083;-78
2023/08/02 03:54:55;;;;;;;;;;;;;;;19.63;56.39;99751.22;4846664;28;124724;-79
2023/08/02 03:57:22;;;;;;;;;;;;;;;19.63;56.35;99751.22;4834053;28;120287;-79
2023/08/02 03:59:49;;;;;;;;;;;;;;;19.63;56.13;99740.47;4847530;28;118714;-79
2023/08/02 04:02:16;;;;;;;;;;;;;;;19.63;56.37;99751.22;4863504;28;124095;-79
2023/08/02 04:04:43;;;;;;;;;;;;;;;19.62;56.40;99738.78;4843627;28;124799;-80
2023/08/02 04:07:10;;;;;;;;;;;;;;;19.62;56.49;99721.81;4847734;28;120609;-79
2023/08/02 04:09:37;;;;;;;;;;;;;;;19.61;56.27;99715.63;4848620;28;119823;-81
2023/08/02 04:12:04;;;;;;;;;;;;;;;19.61;56.42;99721.00;4856558;28;123842;-79
2023/08/02 04:14:31;;;;;;;;;;;;;;;19.58;56.48;99710.56;4846941;28;122850;-81
2023/08/02 04:16:58;;;;;;;;;;;;;;;19.58;56.49;99715.09;4847048;28;119703;-79
2023/08/02 04:19:25;;;;;;;;;;;;;;;19.57;56.65;99703.50;4849069;28;119110;-79
2023/08/02 04:21:52;;;;;;;;;;;;;;;19.58;56.56;99702.50;4834694;29;124514;-81
2023/08/02 04:24:19;;;;;;;;;;;;;;;19.60;56.56;99692.44;4848504;28;125088;-81
2023/08/02 04:26:46;;;;;;;;;;;;;;;19.61;56.58;99688.75;4852268;28;119967;-79
2023/08/02 04:29:13;;;;;;;;;;;;;;;19.62;56.65;99674.31;4852213;28;118671;-79
2023/08/02 04:31:40;;;;;;;;;;;;;;;19.63;56.61;99670.63;4845546;28;125711;-79
2023/08/02 04:34:07;;;;;;;;;;;;;;;19.61;56.60;99661.91;4848785;28;124729;-79
2023/08/02 04:36:34;;;;;;;;;;;;;;;19.60;56.69;99659.38;4860112;28;118352;-79
2023/08/02 04:39:03;;;;;;;;;;;;;;;19.57;56.77;99655.16;4850635;28;118645;-79
2023/08/02 04:41:30;;;;;;;;;;;;;;;19.57;56.91;99644.41;4851420;28;125178;-79
2023/08/02 04:43:57;;;;;;;;;;;;;;;19.56;56.83;99648.09;4852352;28;124252;-79
2023/08/02 04:46:25;;;;;;;;;;;;;;;19.56;56.89;99631.97;4850673;28;120740;-79
2023/08/02 04:48:52;;;;;;;;;;;;;;;19.56;56.85;99621.22;4851153;28;118893;-80
2023/08/02 04:51:19;;;;;;;;;;;;;;;19.54;56.83;99617.03;4827813;29;123433;-80
2023/08/02 04:53:49;;;;;;;;;;;;;;;19.51;56.90;99607.41;4850499;28;124296;-79
2023/08/02 04:56:17;;;;;;;;;;;;;;;19.50;57.09;99611.13;4850202;28;120416;-79
2023/08/02 04:58:44;;;;;;;;;;;;;;;19.51;56.90;99610.09;4846124;28;120565;-78
2023/08/02 05:01:11;;;;;;;;;;;;;;;19.49;57.02;99598.69;4843898;28;124364;-79
2023/08/02 05:03:38;;;;;;;;;;;;;;;19.49;57.02;99593.31;4850064;28;123774;-78
2023/08/02 05:06:05;;;;;;;;;;;;;;;19.47;57.23;99579.19;4847027;28;119818;-79
2023/08/02 05:08:34;;;;;;;;;;;;;;;19.48;57.19;99578.22;4852427;28;119290;-79
2023/08/02 05:11:03;;;;;;;;;;;;;;;19.50;57.14;99583.44;4852927;28;124058;-79
2023/08/02 05:13:30;;;;;;;;;;;;;;;19.51;57.19;99569.81;4853983;28;126246;-79
2023/08/02 05:15:57;;;;;;;;;;;;;;;19.50;57.27;99562.78;4852840;28;119557;-80
2023/08/02 05:18:24;;;;;;;;;;;;;;;19.52;57.22;99560.78;4852062;28;120228;-79
2023/08/02 05:20:52;;;;;;;;;;;;;;;19.53;57.26;99546.34;4848751;28;125372;-79
2023/08/02 05:23:19;;;;;;;;;;;;;;;19.54;57.39;99553.41;4849862;28;123138;-78
2023/08/02 05:25:46;;;;;;;;;;;;;;;19.53;57.40;99546.34;4850246;28;120086;-79
2023/08/02 05:28:13;;;;;;;;;;;;;;;19.52;57.45;99552.72;4850546;28;119803;-78
2023/08/02 05:30:40;;;;;;;;;;;;;;;19.53;57.66;99546.34;4847909;28;124335;-78
2023/08/02 05:33:07;;;;;;;;;;;;;;;19.55;57.51;99533.63;4847485;28;125952;-78
2023/08/02 05:35:34;;;;;;;;;;;;;;;19.56;57.27;99529.91;4835137;29;119147;-78
2023/08/02 05:38:01;;;;;;;;;;;;;;;19.57;57.56;99518.19;4853780;28;118834;-79
2023/08/02 05:40:28;;;;;;;;;;;;;;;19.60;57.53;99515.16;4854427;28;123199;-79
2023/08/02 05:42:56;;;;;;;;;;;;;;;19.63;57.54;99509.47;4854681;28;123214;-79
2023/08/02 05:45:23;;;;;;;;;;;;;;;19.65;57.64;99512.84;4853570;28;120744;-79
2023/08/02 05:47:51;;;;;;;;;;;;;;;19.67;57.42;99509.16;4852691;28;119806;-79
2023/08/02 05:50:18;;;;;;;;;;;;;;;19.69;57.49;99507.16;4845115;28;123399;-79
2023/08/02 05:52:45;;;;;;;;;;;;;;;19.67;57.54;99501.09;4849531;28;124173;-79
2023/08/02 05:55:12;;;;;;;;;;;;;;;19.64;57.53;99495.03;4850985;28;120365;-80
2023/08/02 05:57:39;;;;;;;;;;;;;;;19.61;57.66;99481.94;4849844;28;117790;-79
2023/08/02 06:00:07;;;;;;;;;;;;;;;19.63;57.67;99476.41;4853048;28;124702;-79
2023/08/02 06:02:34;;;;;;;;;;;;;;;19.64;57.79;99457.41;4848886;28;123078;-79
2023/08/02 06:05:02;;;;;;;;;;;;;;;19.67;57.75;99461.66;4853628;28;118655;-79
2023/08/02 06:07:29;;;;;;;;;;;;;;;19.70;57.74;99460.47;4867403;28;118782;-79
2023/08/02 06:09:56;;;;;;;;;;;;;;;19.70;57.81;99460.47;4851077;28;124986;-79
2023/08/02 06:12:23;;;;;;;;;;;;;;;19.72;57.72;99443.25;4854452;28;123938;-79
2023/08/02 06:14:50;;;;;;;;;;;;;;;19.75;57.76;99444.75;4835918;28;120018;-78
2023/08/02 06:17:17;;;;;;;;;;;;;;;19.74;57.87;99435.00;4853892;28;118958;-80
2023/08/02 06:19:44;;;;;;;;;;;;;;;19.73;57.88;99427.94;4853813;28;124959;-79
2023/08/02 06:22:11;;;;;;;;;;;;;;;19.73;57.94;99417.22;4853717;28;125263;-79
2023/08/02 06:24:38;;;;;;;;;;;;;;;19.72;57.87;99404.72;4834179;29;119145;-78
2023/08/02 06:27:05;;;;;;;;;;;;;;;19.72;57.87;99394.00;4844590;28;118943;-78
2023/08/02 06:29:32;;;;;;;;;;;;;;;19.71;57.91;99382.41;4867274;28;124134;-79
2023/08/02 06:31:59;;;;;;;;;;;;;;;19.71;58.05;99386.94;4848999;28;124056;-78
2023/08/02 06:34:26;;;;;;;;;;;;;;;19.73;58.06;99384.97;4851879;28;121323;-79
2023/08/02 06:36:52;;;;;;;;;;;;;;;19.73;58.18;99374.22;4852089;28;120303;-79
2023/08/02 06:39:20;;;;;;;;;;;;;;;19.74;58.18;99365.16;4849625;28;124928;-79
2023/08/02 06:41:46;;;;;;;;;;;;;;;19.74;58.12;99354.41;4852153;28;124947;-80
2023/08/02 06:44:14;;;;;;;;;;;;;;;19.72;58.33;99346.53;4851638;28;120517;-79
2023/08/02 06:46:41;;;;;;;;;;;;;;;19.71;58.19;99354.72;4837103;29;119733;-78
2023/08/02 06:49:08;;;;;;;;;;;;;;;19.70;58.30;99331.53;4852376;28;124253;-79
2023/08/02 06:51:35;;;;;;;;;;;;;;;19.71;58.61;99335.91;4853719;28;124979;-78
2023/08/02 06:54:02;;;;;;;;;;;;;;;19.70;58.70;99336.91;4850405;28;120378;-78
2023/08/02 06:56:29;;;;;;;;;;;;;;;19.69;58.67;99335.25;4861059;28;119693;-78
2023/08/02 06:58:56;;;;;;;;;;;;;;;19.70;58.81;99315.41;4850666;28;124422;-79
2023/08/02 07:01:23;;;;;;;;;;;;;;;19.71;58.79;99306.38;4849742;28;124269;-78
2023/08/02 07:03:50;;;;;;;;;;;;;;;19.73;58.91;99289.09;4849594;28;119277;-80
2023/08/02 07:06:18;;;;;;;;;;;;;;;19.74;58.76;99279.19;4852306;28;118482;-78
2023/08/02 07:08:45;;;;;;;;;;;;;;;19.76;58.72;99279.84;4851287;28;124699;-78
2023/08/02 07:11:12;;;;;;;;;;;;;;;19.78;58.80;99259.91;4849934;29;124314;-78
2023/08/02 07:13:56;;;;;;;;;;;;;;;19.78;58.79;99253.69;4850134;28;119378;-79
2023/08/02 07:16:23;;;;;;;;;;;;;;;19.80;58.62;99251.66;4835064;29;119083;-78
2023/08/02 07:18:51;;;;;;;;;;;;;;;19.79;58.75;99237.38;4847849;28;125025;-78
2023/08/02 07:21:18;;;;;;;;;;;;;;;19.81;58.88;99234.53;4845599;28;124015;-79
2023/08/02 07:23:45;;;;;;;;;;;;;;;19.79;58.79;99233.84;4847254;28;120542;-78
2023/08/02 07:26:11;;;;;;;;;;;;;;;19.81;58.95;99221.09;4851851;28;119222;-79
2023/08/02 07:28:38;;;;;;;;;;;;;;;19.82;58.85;99220.09;4852208;28;124403;-78
2023/08/02 07:31:06;;;;;;;;;;;;;;;19.84;58.99;99215.41;4851728;28;123806;-78
2023/08/02 07:33:33;;;;;;;;;;;;;;;19.83;58.93;99213.69;4848915;28;119296;-78
2023/08/02 07:36:01;;;;;;;;;;;;;;;19.84;59.03;99212.72;4851389;28;119186;-81
2023/08/02 07:38:28;;;;;;;;;;;;;;;19.84;59.05;99204.66;4851086;28;124200;-78
2023/08/02 07:40:55;;;;;;;;;;;;;;;19.85;59.11;99200.94;4852768;28;125158;-78
2023/08/02 07:43:22;;;;;;;;;;;;;;;19.86;59.20;99191.88;4849302;28;120149;-79
2023/08/02 07:45:49;;;;;;;;;;;;;;;19.88;59.05;99200.59;4849566;28;119467;-79
2023/08/02 07:48:16;;;;;;;;;;;;;;;19.90;59.04;99198.59;4845869;28;124593;-78
2023/08/02 07:50:43;;;;;;;;;;;;;;;19.92;59.18;99196.56;4851861;28;123921;-79
2023/08/02 07:53:10;;;;;;;;;;;;;;;19.95;59.25;99188.19;4854123;28;119441;-79
2023/08/02 07:55:37;;;;;;;;;;;;;;;19.98;59.06;99185.13;4853127;28;118032;-79
2023/08/02 07:58:04;;;;;;;;;;;;;;;20.02;59.21;99175.75;4855237;28;124770;-79
2023/08/02 08:00:31;;;;;;;;;;;;;;;20.05;59.23;99162.97;4854729;28;125095;-79
2023/08/02 08:02:58;;;;;;;;;;;;;;;20.08;59.21;99167.97;4850469;28;119444;-78
2023/08/02 08:05:25;;;;;;;;;;;;;;;20.10;59.24;99153.38;4846173;28;119496;-79
2023/08/02 08:07:52;;;;;;;;;;;;;;;20.14;59.20;99145.81;4853973;28;125149;-80
2023/08/02 08:10:19;;;;;;;;;;;;;;;20.17;59.30;99156.19;4851712;28;124937;-79
2023/08/02 08:12:46;;;;;;;;;;;;;;;20.21;59.27;99142.25;4849469;28;119905;-78
2023/08/02 08:15:13;;;;;;;;;;;;;;;20.28;59.32;99137.00;4851589;28;119555;-79
2023/08/02 08:17:40;;;;;;;;;;;;;;;20.34;59.29;99135.47;4850912;28;124945;-78
2023/08/02 08:20:07;;;;;;;;;;;;;;;20.38;59.35;99132.28;4850025;28;124182;-79
2023/08/02 08:22:35;;;;;;;;;;;;;;;20.45;59.36;99124.34;4851997;28;119411;-79
2023/08/02 08:25:02;;;;;;;;;;;;;;;20.49;59.31;99122.13;4851221;28;119574;-79
2023/08/02 08:27:29;;;;;;;;;;;;;;;20.51;59.26;99115.59;4849897;28;124114;-79
2023/08/02 08:29:56;;;;;;;;;;;;;;;20.53;59.34;99107.31;4849171;28;125415;-79
2023/08/02 08:32:26;;;;;;;;;;;;;;;20.56;59.31;99096.22;4849122;28;120046;-80
2023/08/02 08:34:55;;;;;;;;;;;;;;;20.62;59.27;99095.53;4840574;28;119502;-79
2023/08/02 08:37:22;;;;;;;;;;;;;;;20.64;59.25;99093.50;4851476;28;123402;-79
2023/08/02 08:39:49;;;;;;;;;;;;;;;20.67;59.37;99085.09;4852257;28;124310;-79
2023/08/02 08:42:36;;;;;;;;;;;;;;;20.69;59.41;99101.88;4851464;28;119953;-79
2023/08/02 08:45:03;;;;;;;;;;;;;;;20.72;59.33;99101.53;4863063;28;120255;-78
2023/08/02 08:47:30;;;;;;;;;;;;;;;20.76;59.28;99102.84;4848416;28;124255;-79
2023/08/02 08:50:02;;;;;;;;;;;;;;;20.79;59.32;99097.13;4851773;28;124089;-78
2023/08/02 08:52:31;;;;;;;;;;;;;;;20.83;59.27;99092.19;4833826;28;119254;-78
2023/08/02 08:54:59;;;;;;;;;;;;;;;20.86;59.26;99091.03;4849494;28;118766;-78
2023/08/02 08:57:26;;;;;;;;;;;;;;;20.87;59.33;99087.31;4849323;28;124638;-80
2023/08/02 08:59:53;;;;;;;;;;;;;;;20.88;59.27;99084.44;4851640;28;123948;-78
2023/08/02 09:02:20;;;;;;;;;;;;;;;20.90;59.33;99092.34;4850558;28;120952;-78
2023/08/02 09:04:49;;;;;;;;;;;;;;;20.94;59.32;99088.25;4839765;28;119887;-79
2023/08/02 09:07:16;;;;;;;;;;;;;;;20.98;59.28;99090.44;4845394;28;124922;-79
2023/08/02 09:09:45;;;;;;;;;;;;;;;21.04;59.35;99077.25;4850060;28;125059;-78
2023/08/02 09:12:12;;;;;;;;;;;;;;;21.11;59.42;99078.22;4851099;28;119420;-78
2023/08/02 09:14:57;;;;;;;;;;;;;;;21.18;59.43;99069.22;4845406;28;119505;-78
2023/08/02 09:17:23;;;;;;;;;;;;;;;21.27;59.45;99071.88;4850494;28;124653;-78
2023/08/02 09:20:05;;;;;;;;;;;;;;;21.35;59.46;99079.88;4853401;28;124082;-78
2023/08/02 09:22:32;;;;;;;;;;;;;;;21.44;59.56;99068.03;4845750;28;119986;-78
2023/08/02 09:25:02;;;;;;;;;;;;;;;21.56;59.60;99055.78;4854859;28;118658;-78
2023/08/02 09:27:29;;;;;;;;;;;;;;;21.65;59.60;99058.41;4852662;28;124792;-78
2023/08/02 09:29:56;;;;;;;;;;;;;;;21.73;59.48;99055.59;4850670;28;124380;-79
2023/08/02 09:32:24;;;;;;;;;;;;;;;21.82;59.49;99051.81;4851684;28;119608;-78
2023/08/02 09:34:51;;;;;;;;;;;;;;;21.92;59.53;99049.66;4846984;28;121335;-78
2023/08/02 09:37:31;;;;;;;;;;;;;;;22.04;59.45;99046.47;4853981;28;124332;-78
2023/08/02 09:39:59;;;;;;;;;;;;;;;22.17;59.47;99041.28;4845951;28;124753;-79
2023/08/02 09:42:26;;;;;;;;;;;;;;;22.28;59.43;99034.56;4851425;28;120460;-78
2023/08/02 09:44:55;;;;;;;;;;;;;;;22.37;59.46;99029.91;4853472;28;118556;-78
2023/08/02 09:47:23;;;;;;;;;;;;;;;22.46;59.46;99024.22;4860537;28;124557;-79
2023/08/02 09:50:03;;;;;;;;;;;;;;;22.56;59.35;99023.88;4852394;28;123731;-78
2023/08/02 09:52:30;;;;;;;;;;;;;;;22.68;59.56;99022.38;4865859;28;120187;-78
2023/08/02 09:54:58;;;;;;;;;;;;;;;22.82;59.57;99011.69;4854568;28;119322;-78
2023/08/02 09:57:27;;;;;;;;;;;;;;;22.97;59.59;99015.16;4851293;28;123391;-78
2023/08/02 09:59:55;;;;;;;;;;;;;;;23.09;59.57;99013.63;4847968;28;124152;-78
2023/08/02 10:02:24;;;;;;;;;;;;;;;23.22;59.22;99006.66;4865140;28;118027;-78
2023/08/02 10:04:56;;;;;;;;;;;;;;;23.33;59.34;98998.00;4845475;28;118937;-79
2023/08/02 10:07:27;;;;;;;;;;;;;;;23.43;59.46;98998.50;4866339;28;124958;-78
2023/08/02 10:09:55;;;;;;;;;;;;;;;23.55;59.24;98996.09;4852047;28;123963;-78
2023/08/02 10:12:25;;;;;;;;;;;;;;;23.65;59.37;98990.31;4853291;28;119624;-79
2023/08/02 10:14:52;;;;;;;;;;;;;;;23.71;59.13;98989.50;4845665;28;118345;-78
2023/08/02 10:17:19;;;;;;;;;;;;;;;23.76;58.87;98991.63;4847987;28;124509;-78
2023/08/02 10:19:47;;;;;;;;;;;;;;;23.78;59.15;98990.38;4850679;28;125425;-79
2023/08/02 10:22:15;;;;;;;;;;;;;;;23.81;59.00;98995.44;4851246;28;120177;-78
2023/08/02 10:24:44;;;;;;;;;;;;;;;23.84;58.69;98995.00;4851526;28;117029;-78
2023/08/02 10:27:11;;;;;;;;;;;;;;;23.87;58.86;98994.63;4852518;28;124653;-78
2023/08/02 10:29:40;;;;;;;;;;;;;;;23.94;59.13;98993.81;4864045;28;123779;-78
2023/08/02 10:32:14;;;;;;;;;;;;;;;23.97;58.80;98985.31;4843073;28;120255;-78
2023/08/02 10:34:42;;;;;;;;;;;;;;;24.02;58.89;98977.44;4841401;28;118638;-80
2023/08/02 10:37:09;;;;;;;;;;;;;;;24.12;58.93;98967.03;4852771;28;124476;-78
2023/08/02 10:39:45;;;;;;;;;;;;;;;24.21;59.06;98946.91;4829725;29;123495;-79
2023/08/02 10:42:42;;;;;;;;;;;;;;;24.33;59.27;98932.75;4852134;28;119562;-79
2023/08/02 10:45:09;;;;;;;;;;;;;;;24.46;59.22;98928.19;4848408;28;119931;-79
2023/08/02 10:47:36;;;;;;;;;;;;;;;24.61;59.26;98933.44;4843425;28;124537;-79
2023/08/02 10:50:03;;;;;;;;;;;;;;;24.78;59.30;98938.47;4845892;28;125021;-78
2023/08/02 10:52:31;;;;;;;;;;;;;;;24.92;59.26;98945.56;4846810;28;119567;-78
2023/08/02 10:55:06;;;;;;;;;;;;;;;25.04;59.21;98946.56;4844844;28;118092;-78
2023/08/02 10:57:33;;;;;;;;;;;;;;;25.12;58.92;98931.16;4865964;28;123780;-78
2023/08/02 11:00:12;;;;;;;;;;;;;;;25.18;58.71;98941.97;4850115;28;124675;-79
2023/08/02 11:02:47;;;;;;;;;;;;;;;25.26;58.76;98930.13;4845932;28;119429;-78
2023/08/02 11:05:16;;;;;;;;;;;;;;;25.30;58.55;98923.22;4847260;28;118461;-79
2023/08/02 11:07:56;;;;;;;;;;;;;;;25.32;58.96;98910.28;4860494;28;124953;-80
2023/08/02 11:10:23;;;;;;;;;;;;;;;25.35;58.48;98920.69;4850719;28;124028;-78
2023/08/02 11:12:53;;;;;;;;;;;;;;;25.34;58.41;98913.63;4852677;28;119708;-79
2023/08/02 11:15:21;;;;;;;;;;;;;;;25.33;58.52;98890.25;4847740;28;118741;-78
2023/08/02 11:17:54;;;;;;;;;;;;;;;25.33;58.37;98884.84;4849212;28;125171;-79
2023/08/02 11:20:25;;;;;;;;;;;;;;;25.28;58.15;98876.53;4844787;28;123843;-79
2023/08/02 11:22:53;;;;;;;;;;;;;;;25.25;58.30;98893.22;4843771;28;120315;-79
2023/08/02 11:25:20;;;;;;;;;;;;;;;25.20;58.49;98864.03;4858551;28;119609;-79
2023/08/02 11:28:03;;;;;;;;;;;;;;;25.17;58.16;98871.75;4850786;28;124660;-79
2023/08/02 11:30:30;;;;;;;;;;;;;;;25.16;58.79;98867.38;4848510;28;123603;-78
2023/08/02 11:32:57;;;;;;;;;;;;;;;25.12;58.41;98869.66;4848699;28;119639;-79
2023/08/02 11:35:24;;;;;;;;;;;;;;;25.10;58.61;98858.22;4845119;28;119592;-78
2023/08/02 11:37:51;;;;;;;;;;;;;;;25.10;58.53;98857.38;4849853;28;123968;-79
2023/08/02 11:40:18;;;;;;;;;;;;;;;25.13;58.87;98851.53;4850693;28;125872;-78
2023/08/02 11:42:53;;;;;;;;;;;;;;;25.15;58.39;98855.69;4851205;28;118829;-79
2023/08/02 11:45:32;;;;;;;;;;;;;;;25.17;58.57;98860.91;4858026;28;119049;-78
2023/08/02 11:47:59;;;;;;;;;;;;;;;25.19;58.74;98850.69;4848738;28;123967;-78
2023/08/02 11:50:31;;;;;;;;;;;;;;;25.15;58.59;98844.03;4848158;28;123807;-78
2023/08/02 11:53:03;;;;;;;;;;;;;;;25.11;58.61;98840.06;4852590;28;119666;-78
2023/08/02 11:55:31;;;;;;;;;;;;;;;25.05;58.28;98834.47;4850329;28;118997;-79
2023/08/02 11:58:31;;;;;;;;;;;;;;;24.98;58.29;98849.91;5111660;27;96918;-76
2023/08/02 12:00:58;;;;;;;;;;;;;;;24.93;58.29;98889.50;5087596;27;107083;-75
2023/08/02 12:03:25;;;;;;;;;;;;;;;24.86;58.13;98894.91;5058600;27;124408;-75
2023/08/02 12:05:58;;;;;;;;;;;;;;;24.83;58.39;98879.09;5053060;27;125050;-75
2023/08/02 12:08:26;;;;;;;;;;;;;;;24.88;58.87;98871.16;5063764;27;107087;-75
2023/08/02 12:10:53;;;;;;;;;;;;;;;24.98;59.01;98866.16;5052079;27;107678;-75
2023/08/02 12:13:20;;;;;;;;;;;;;;;25.13;59.06;98856.94;5058605;27;123397;-75
2023/08/02 12:16:04;;;;;;;;;;;;;;;25.27;59.12;98853.19;5067692;27;124089;-75
2023/08/02 12:18:31;;;;;;;;;;;;;;;25.41;59.27;98859.38;5078508;27;108770;-76
2023/08/02 12:21:13;;;;;;;;;;;;;;;25.54;58.98;98853.09;5077839;27;107288;-75
2023/08/02 12:23:40;;;;;;;;;;;;;;;25.73;59.53;98857.59;5053630;27;124297;-76
2023/08/02 12:26:08;;;;;;;;;;;;;;;25.88;59.42;98865.44;5068441;27;122794;-75
2023/08/02 12:28:46;;;;;;;;;;;;;;;26.00;59.02;98862.91;5071439;27;106991;-75
2023/08/02 12:31:14;;;;;;;;;;;;;;;26.11;58.95;98843.22;5075892;27;107901;-75
2023/08/02 12:33:42;;;;;;;;;;;;;;;26.19;59.00;98859.22;5054649;27;123911;-75
2023/08/02 12:36:09;;;;;;;;;;;;;;;26.27;58.98;98860.00;5076028;27;124513;-75
2023/08/02 12:38:36;;;;;;;;;;;;;;;26.32;58.79;98855.56;5074585;27;108146;-75
2023/08/02 12:41:03;;;;;;;;;;;;;;;26.38;58.67;98853.84;5076466;27;107357;-76